Time;durP1;ratioP1;P1;durP2;ratioP2;P2;SDS_P1;SDS_P2;PMS_P1;PMS_P2;Temp;Humidity;BMP_temperature;BMP_pressure;BME280_temperature;BME280_humidity;BME280_pressure;Samples;Min_cycle;Max_cycle;Signal;HPM_P1;HPM_P2
2021/09/21 00:02:25;;;;;;;10.85;5.53;;;;;;;;;;5052332;28;20082;-53
2021/09/21 00:04:51;;;;;;;11.25;5.38;;;;;;;;;;5051661;28;20036;-53
2021/09/21 00:07:17;;;;;;;14.07;6.15;;;;;;;;;;5052535;28;20029;-52
2021/09/21 00:09:45;;;;;;;9.05;5.40;;;;;;;;;;5051682;28;20516;-52
2021/09/21 00:12:11;;;;;;;10.85;5.85;;;;;;;;;;5035500;28;20452;-53
2021/09/21 00:14:38;;;;;;;12.07;6.57;;;;;;;;;;5034899;28;20025;-52
2021/09/21 00:17:04;;;;;;;10.32;5.63;;;;;;;;;;5036025;28;20359;-52
2021/09/21 00:19:33;;;;;;;12.60;5.55;;;;;;;;;;5036342;28;20030;-52
2021/09/21 00:21:59;;;;;;;11.85;5.97;;;;;;;;;;5035748;28;20021;-52
2021/09/21 00:24:25;;;;;;;12.30;6.53;;;;;;;;;;5034895;28;20405;-52
2021/09/21 00:26:51;;;;;;;10.93;5.78;;;;;;;;;;5035528;28;20030;-53
2021/09/21 00:29:17;;;;;;;12.10;5.95;;;;;;;;;;5035779;28;20034;-52
2021/09/21 00:31:49;;;;;;;10.88;6.05;;;;;;;;;;5035490;28;20022;-52
2021/09/21 00:34:16;;;;;;;12.60;6.57;;;;;;;;;;5035034;28;20044;-53
2021/09/21 00:36:42;;;;;;;10.68;5.93;;;;;;;;;;5035547;28;20366;-53
2021/09/21 00:39:08;;;;;;;14.05;5.60;;;;;;;;;;5050573;28;20446;-52
2021/09/21 00:41:39;;;;;;;11.88;5.13;;;;;;;;;;5055618;28;20032;-53
2021/09/21 00:44:05;;;;;;;12.02;5.57;;;;;;;;;;5055186;28;20031;-52
2021/09/21 00:46:31;;;;;;;12.73;5.85;;;;;;;;;;5055266;28;20387;-52
2021/09/21 00:48:57;;;;;;;10.27;5.85;;;;;;;;;;5055793;28;20067;-53
2021/09/21 00:51:24;;;;;;;8.65;5.47;;;;;;;;;;5055859;28;20021;-53
2021/09/21 00:53:51;;;;;;;10.10;5.82;;;;;;;;;;5054215;28;20029;-52
2021/09/21 00:56:17;;;;;;;10.35;5.88;;;;;;;;;;5055511;28;20017;-53
2021/09/21 00:58:43;;;;;;;9.45;5.80;;;;;;;;;;5054985;28;20051;-53
2021/09/21 01:01:09;;;;;;;16.48;6.90;;;;;;;;;;5055060;28;20021;-53
2021/09/21 01:03:35;;;;;;;13.25;6.07;;;;;;;;;;5054406;28;20067;-53
2021/09/21 01:06:01;;;;;;;11.90;6.13;;;;;;;;;;5055303;28;20322;-53
2021/09/21 01:08:30;;;;;;;12.50;5.63;;;;;;;;;;5055258;28;20358;-53
2021/09/21 01:10:56;;;;;;;10.40;5.47;;;;;;;;;;5054635;28;20024;-52
2021/09/21 01:13:22;;;;;;;10.15;6.00;;;;;;;;;;5054904;28;20260;-52
2021/09/21 01:15:49;;;;;;;9.32;5.35;;;;;;;;;;5054445;28;20044;-53
2021/09/21 01:18:15;;;;;;;11.73;6.55;;;;;;;;;;5055181;28;20021;-53
2021/09/21 01:20:41;;;;;;;14.45;6.40;;;;;;;;;;5054639;28;20029;-52
2021/09/21 01:23:07;;;;;;;15.07;7.00;;;;;;;;;;5054501;28;20029;-52
2021/09/21 01:25:33;;;;;;;12.48;5.72;;;;;;;;;;5053442;28;20024;-52
2021/09/21 01:27:59;;;;;;;11.80;6.68;;;;;;;;;;5054555;28;20454;-52
2021/09/21 01:30:25;;;;;;;13.00;6.35;;;;;;;;;;5055218;28;20430;-53
2021/09/21 01:32:51;;;;;;;14.00;6.40;;;;;;;;;;5054324;28;20116;-53
2021/09/21 01:35:17;;;;;;;13.48;5.93;;;;;;;;;;5053824;28;20112;-53
2021/09/21 01:37:46;;;;;;;12.38;5.90;;;;;;;;;;5054121;28;20032;-52
2021/09/21 01:40:12;;;;;;;12.13;6.45;;;;;;;;;;5054952;28;20037;-52
2021/09/21 01:42:46;;;;;;;10.35;5.65;;;;;;;;;;5054132;28;20025;-52
2021/09/21 01:45:12;;;;;;;11.48;6.22;;;;;;;;;;5053614;28;20029;-52
2021/09/21 01:47:39;;;;;;;13.20;5.63;;;;;;;;;;5054374;28;20028;-53
2021/09/21 01:50:19;;;;;;;11.93;6.10;;;;;;;;;;5054530;28;20048;-53
2021/09/21 01:58:18;;;;;;;8.20;5.55;;;;;;;;;;5053586;28;20064;-52
2021/09/21 01:58:19;;;;;;;8.98;5.40;;;;;;;;;;5053905;28;20029;-52
2021/09/21 02:00:45;;;;;;;9.68;5.25;;;;;;;;;;5045272;28;20072;-52
2021/09/21 02:03:11;;;;;;;14.50;5.57;;;;;;;;;;5040826;28;20025;-52
2021/09/21 02:05:37;;;;;;;10.40;5.75;;;;;;;;;;5053399;28;20048;-53
2021/09/21 02:08:03;;;;;;;11.52;5.68;;;;;;;;;;5053980;28;20025;-52
2021/09/21 02:10:29;;;;;;;12.45;6.20;;;;;;;;;;5043738;28;20083;-52
2021/09/21 02:12:55;;;;;;;9.25;5.15;;;;;;;;;;5033614;28;20387;-52
2021/09/21 02:15:22;;;;;;;14.75;6.43;;;;;;;;;;5033566;28;20399;-52
2021/09/21 02:17:49;;;;;;;10.75;5.97;;;;;;;;;;5033734;28;20104;-52
2021/09/21 02:20:15;;;;;;;10.73;4.88;;;;;;;;;;5033634;28;20037;-52
2021/09/21 02:22:41;;;;;;;12.15;5.78;;;;;;;;;;5033898;28;20028;-53
2021/09/21 02:25:07;;;;;;;12.95;5.32;;;;;;;;;;5033099;28;20029;-53
2021/09/21 02:27:33;;;;;;;10.82;5.43;;;;;;;;;;5033008;28;20378;-53
2021/09/21 02:29:59;;;;;;;10.73;5.70;;;;;;;;;;5033571;28;20448;-53
2021/09/21 02:32:25;;;;;;;13.30;6.20;;;;;;;;;;5033432;28;20402;-53
2021/09/21 02:34:51;;;;;;;11.32;5.38;;;;;;;;;;5032961;28;20113;-52
2021/09/21 02:37:18;;;;;;;11.88;5.38;;;;;;;;;;5033126;28;20022;-52
2021/09/21 02:39:44;;;;;;;9.90;6.18;;;;;;;;;;5053529;28;20085;-53
2021/09/21 02:42:10;;;;;;;10.13;5.60;;;;;;;;;;5052882;28;20450;-53
2021/09/21 02:44:36;;;;;;;15.43;6.00;;;;;;;;;;5052187;28;20537;-52
2021/09/21 02:47:03;;;;;;;9.35;5.70;;;;;;;;;;5053289;28;20025;-52
2021/09/21 02:49:30;;;;;;;12.25;6.32;;;;;;;;;;5053139;28;20346;-53
2021/09/21 02:51:56;;;;;;;15.32;6.20;;;;;;;;;;5053099;28;20567;-53
2021/09/21 02:54:22;;;;;;;12.02;6.40;;;;;;;;;;5052109;28;20359;-53
2021/09/21 02:56:48;;;;;;;10.85;5.70;;;;;;;;;;5053182;28;20021;-52
2021/09/21 02:59:14;;;;;;;8.40;5.30;;;;;;;;;;5044285;28;20231;-52
2021/09/21 03:01:40;;;;;;;11.73;5.85;;;;;;;;;;5052600;28;20103;-52
2021/09/21 03:04:14;;;;;;;8.00;4.50;;;;;;;;;;5052052;28;20032;-53
2021/09/21 03:06:45;;;;;;;12.68;6.10;;;;;;;;;;5053078;28;20376;-52
2021/09/21 03:09:37;;;;;;;11.18;5.38;;;;;;;;;;5052810;28;20055;-52
2021/09/21 03:17:39;;;;;;;9.93;5.95;;;;;;;;;;5010898;28;20499;-52
2021/09/21 03:20:06;;;;;;;11.45;6.40;;;;;;;;;;5010150;28;20046;-52
2021/09/21 03:22:32;;;;;;;10.23;5.80;;;;;;;;;;5010797;28;20026;-52
2021/09/21 03:24:58;;;;;;;10.02;6.07;;;;;;;;;;4989492;28;20080;-53
2021/09/21 03:27:24;;;;;;;9.98;5.88;;;;;;;;;;5028567;28;20044;-52
2021/09/21 03:29:50;;;;;;;12.88;6.22;;;;;;;;;;5029685;28;20037;-52
2021/09/21 03:32:16;;;;;;;10.18;5.85;;;;;;;;;;5030054;28;20033;-52
2021/09/21 03:34:42;;;;;;;13.20;7.22;;;;;;;;;;5029302;28;20362;-53
2021/09/21 03:37:09;;;;;;;11.93;6.15;;;;;;;;;;5030273;28;20036;-53
2021/09/21 03:39:36;;;;;;;11.38;6.53;;;;;;;;;;5048428;28;20037;-52
2021/09/21 03:42:03;;;;;;;10.75;5.32;;;;;;;;;;5049932;28;20120;-53
2021/09/21 03:44:29;;;;;;;11.73;5.72;;;;;;;;;;5037833;28;20033;-53
2021/09/21 03:46:55;;;;;;;10.38;5.88;;;;;;;;;;5030446;28;20018;-53
2021/09/21 03:49:23;;;;;;;13.55;6.20;;;;;;;;;;5033906;28;20041;-52
2021/09/21 03:51:49;;;;;;;15.50;5.45;;;;;;;;;;5035483;28;20044;-53
2021/09/21 03:54:15;;;;;;;11.02;5.60;;;;;;;;;;5035356;28;20119;-52
2021/09/21 03:56:41;;;;;;;12.18;6.13;;;;;;;;;;5036446;28;20029;-52
2021/09/21 03:59:08;;;;;;;10.73;5.47;;;;;;;;;;5036276;28;20473;-52
2021/09/21 04:01:34;;;;;;;11.45;5.35;;;;;;;;;;5035688;28;20095;-53
2021/09/21 04:04:01;;;;;;;9.77;5.50;;;;;;;;;;5035097;28;20406;-52
2021/09/21 04:06:27;;;;;;;16.92;5.80;;;;;;;;;;5036333;28;20410;-52
2021/09/21 04:08:54;;;;;;;16.63;6.00;;;;;;;;;;5036032;28;20037;-53
2021/09/21 04:11:20;;;;;;;11.80;6.30;;;;;;;;;;5045028;28;20506;-53
2021/09/21 04:13:46;;;;;;;10.55;5.90;;;;;;;;;;5055604;28;20080;-53
2021/09/21 04:16:13;;;;;;;11.02;6.68;;;;;;;;;;5055868;28;20040;-53
2021/09/21 04:18:39;;;;;;;12.20;6.03;;;;;;;;;;5056061;28;20024;-53
2021/09/21 04:21:05;;;;;;;9.43;4.63;;;;;;;;;;5054722;28;20041;-53
2021/09/21 04:23:31;;;;;;;10.82;5.75;;;;;;;;;;5054706;28;20028;-53
2021/09/21 04:25:57;;;;;;;8.95;5.60;;;;;;;;;;5055927;28;20021;-53
2021/09/21 04:28:24;;;;;;;10.98;6.10;;;;;;;;;;5055745;28;20037;-53
2021/09/21 04:30:50;;;;;;;9.93;5.20;;;;;;;;;;5055550;28;20033;-53
2021/09/21 04:33:16;;;;;;;10.93;5.38;;;;;;;;;;5055860;28;20048;-53
2021/09/21 04:35:42;;;;;;;10.18;5.72;;;;;;;;;;5055302;28;20060;-53
2021/09/21 04:38:09;;;;;;;13.20;6.40;;;;;;;;;;5055444;28;20017;-53
2021/09/21 04:40:35;;;;;;;17.15;5.35;;;;;;;;;;5055904;28;20124;-52
2021/09/21 04:43:01;;;;;;;9.02;6.07;;;;;;;;;;5055335;28;20079;-52
2021/09/21 04:45:27;;;;;;;9.63;5.38;;;;;;;;;;5054372;28;20025;-52
2021/09/21 04:47:53;;;;;;;9.27;5.88;;;;;;;;;;5055733;28;20040;-52
2021/09/21 04:50:19;;;;;;;12.07;6.03;;;;;;;;;;5055142;28;20027;-52
2021/09/21 04:52:45;;;;;;;11.82;5.20;;;;;;;;;;5055789;28;20082;-53
2021/09/21 04:55:11;;;;;;;13.98;5.68;;;;;;;;;;5054556;28;20025;-52
2021/09/21 04:57:37;;;;;;;10.80;5.90;;;;;;;;;;5055199;28;20044;-52
2021/09/21 05:00:04;;;;;;;10.82;5.82;;;;;;;;;;5054584;28;20120;-52
2021/09/21 05:02:30;;;;;;;10.30;5.38;;;;;;;;;;5055163;28;20036;-52
2021/09/21 05:04:56;;;;;;;12.68;6.07;;;;;;;;;;5054705;28;20378;-52
2021/09/21 05:07:22;;;;;;;10.40;5.72;;;;;;;;;;5055135;28;20033;-52
2021/09/21 05:09:48;;;;;;;12.05;6.30;;;;;;;;;;5055242;28;20017;-53
2021/09/21 05:12:14;;;;;;;8.98;5.25;;;;;;;;;;5038167;28;20523;-52
2021/09/21 05:14:40;;;;;;;9.02;5.32;;;;;;;;;;5034300;28;20064;-53
2021/09/21 05:17:06;;;;;;;11.15;5.88;;;;;;;;;;5042723;28;20115;-52
2021/09/21 05:19:32;;;;;;;10.77;5.60;;;;;;;;;;5044203;28;20382;-53
2021/09/21 05:21:58;;;;;;;8.75;5.38;;;;;;;;;;5050254;28;20382;-52
2021/09/21 05:24:24;;;;;;;8.77;5.45;;;;;;;;;;5036608;28;20075;-52
2021/09/21 05:26:50;;;;;;;10.90;5.55;;;;;;;;;;5054348;28;20159;-52
2021/09/21 05:29:16;;;;;;;11.85;5.95;;;;;;;;;;5054803;28;20048;-50
2021/09/21 05:31:42;;;;;;;16.77;6.47;;;;;;;;;;5054277;28;20091;-51
2021/09/21 05:34:08;;;;;;;15.38;6.50;;;;;;;;;;5054091;28;20393;-51
2021/09/21 05:36:34;;;;;;;10.23;5.47;;;;;;;;;;5054477;28;20512;-52
2021/09/21 05:39:00;;;;;;;13.25;5.97;;;;;;;;;;5052324;28;20103;-51
2021/09/21 05:41:26;;;;;;;14.63;6.72;;;;;;;;;;5044237;28;20060;-51
2021/09/21 05:43:52;;;;;;;11.63;5.63;;;;;;;;;;5043139;28;20033;-51
2021/09/21 05:46:18;;;;;;;10.55;5.90;;;;;;;;;;5043570;28;20017;-51
2021/09/21 05:48:44;;;;;;;10.55;5.70;;;;;;;;;;5043973;28;20519;-51
2021/09/21 05:51:11;;;;;;;13.10;6.65;;;;;;;;;;5043980;28;20029;-51
2021/09/21 05:53:37;;;;;;;13.35;6.13;;;;;;;;;;5043213;28;20451;-51
2021/09/21 05:56:03;;;;;;;11.45;6.20;;;;;;;;;;5044070;28;20029;-51
2021/09/21 05:58:30;;;;;;;10.38;5.80;;;;;;;;;;5044797;28;20054;-51
2021/09/21 06:00:57;;;;;;;12.18;5.97;;;;;;;;;;5044061;28;20608;-51
2021/09/21 06:03:24;;;;;;;16.85;6.22;;;;;;;;;;5044691;28;20013;-51
2021/09/21 06:05:50;;;;;;;14.05;6.15;;;;;;;;;;5043513;28;20052;-51
2021/09/21 06:08:16;;;;;;;15.07;6.50;;;;;;;;;;5045328;28;20443;-51
2021/09/21 06:10:42;;;;;;;11.70;6.53;;;;;;;;;;5042607;28;20024;-51
2021/09/21 06:13:08;;;;;;;18.65;6.53;;;;;;;;;;5044647;28;20439;-51
2021/09/21 06:15:34;;;;;;;11.68;6.03;;;;;;;;;;5045533;28;20016;-51
2021/09/21 06:18:00;;;;;;;12.93;7.13;;;;;;;;;;5044143;28;20022;-51
2021/09/21 06:20:26;;;;;;;11.52;5.95;;;;;;;;;;5046190;28;20041;-51
2021/09/21 06:22:52;;;;;;;14.82;6.72;;;;;;;;;;5044045;28;20431;-51
2021/09/21 06:25:18;;;;;;;13.15;5.95;;;;;;;;;;5044513;28;20526;-51
2021/09/21 06:27:45;;;;;;;10.40;5.60;;;;;;;;;;5045018;28;20112;-51
2021/09/21 06:30:12;;;;;;;8.68;5.55;;;;;;;;;;5045901;28;20128;-51
2021/09/21 06:32:39;;;;;;;10.77;6.25;;;;;;;;;;5042505;28;20501;-51
2021/09/21 06:35:05;;;;;;;17.98;6.15;;;;;;;;;;5042122;28;20051;-51
2021/09/21 06:37:32;;;;;;;11.20;5.35;;;;;;;;;;5042674;28;20021;-51
2021/09/21 06:39:59;;;;;;;14.23;5.90;;;;;;;;;;5044851;28;20352;-51
2021/09/21 06:42:25;;;;;;;11.20;6.25;;;;;;;;;;5046360;28;20542;-51
2021/09/21 06:44:51;;;;;;;11.30;6.65;;;;;;;;;;5041580;28;20414;-51
2021/09/21 06:47:17;;;;;;;13.48;6.00;;;;;;;;;;5043793;28;20021;-51
2021/09/21 06:49:43;;;;;;;12.73;7.40;;;;;;;;;;5043236;28;20016;-51
2021/09/21 06:52:09;;;;;;;18.33;6.28;;;;;;;;;;5043075;28;20021;-52
2021/09/21 06:54:35;;;;;;;12.63;5.88;;;;;;;;;;5042242;28;20075;-52
2021/09/21 06:57:01;;;;;;;13.82;5.95;;;;;;;;;;5043179;28;20029;-51
2021/09/21 06:59:27;;;;;;;16.25;6.50;;;;;;;;;;5038273;28;20045;-51
2021/09/21 07:01:54;;;;;;;10.02;5.85;;;;;;;;;;5042549;28;20028;-52
2021/09/21 07:04:20;;;;;;;12.48;6.55;;;;;;;;;;5043793;28;20025;-52
2021/09/21 07:06:47;;;;;;;10.45;5.70;;;;;;;;;;5043044;28;20103;-51
2021/09/21 07:09:12;;;;;;;13.05;6.10;;;;;;;;;;5043463;28;20041;-51
2021/09/21 07:11:38;;;;;;;17.70;6.25;;;;;;;;;;5043872;28;20017;-52
2021/09/21 07:14:04;;;;;;;16.20;6.15;;;;;;;;;;5042974;28;20033;-51
2021/09/21 07:16:30;;;;;;;10.82;5.72;;;;;;;;;;5044172;28;20024;-51
2021/09/21 07:18:56;;;;;;;13.27;5.78;;;;;;;;;;5043782;28;20381;-51
2021/09/21 07:21:22;;;;;;;15.45;6.25;;;;;;;;;;5044958;28;20370;-51
2021/09/21 07:23:48;;;;;;;10.93;6.07;;;;;;;;;;5043496;28;20029;-52
2021/09/21 07:26:15;;;;;;;12.27;6.45;;;;;;;;;;5041931;28;20116;-51
2021/09/21 07:28:41;;;;;;;14.35;7.20;;;;;;;;;;5041453;28;20421;-51
2021/09/21 07:31:07;;;;;;;12.45;6.88;;;;;;;;;;5041303;28;20525;-51
2021/09/21 07:33:33;;;;;;;12.20;7.40;;;;;;;;;;5041846;28;20051;-51
2021/09/21 07:35:59;;;;;;;16.38;7.10;;;;;;;;;;5041089;28;20024;-52
2021/09/21 07:38:25;;;;;;;17.67;6.72;;;;;;;;;;5042616;28;20445;-51
2021/09/21 07:40:51;;;;;;;9.25;6.20;;;;;;;;;;5043585;28;20025;-51
2021/09/21 07:43:17;;;;;;;14.88;6.38;;;;;;;;;;5042532;28;20087;-51
2021/09/21 07:45:43;;;;;;;10.07;6.43;;;;;;;;;;5043331;28;20074;-51
2021/09/21 07:48:10;;;;;;;14.35;6.47;;;;;;;;;;5042873;28;20026;-52
2021/09/21 07:50:36;;;;;;;11.52;5.70;;;;;;;;;;5042385;28;20466;-51
2021/09/21 07:53:02;;;;;;;10.18;6.13;;;;;;;;;;5041975;28;20031;-51
2021/09/21 07:55:28;;;;;;;14.35;6.55;;;;;;;;;;5043323;28;20030;-51
2021/09/21 07:57:54;;;;;;;9.90;6.18;;;;;;;;;;5042664;28;20692;-51
2021/09/21 08:00:20;;;;;;;8.45;5.10;;;;;;;;;;5044049;28;20052;-51
2021/09/21 08:02:46;;;;;;;10.95;6.78;;;;;;;;;;5040077;28;20378;-52
2021/09/21 08:05:13;;;;;;;9.88;5.93;;;;;;;;;;5040598;28;20033;-51
2021/09/21 08:07:40;;;;;;;14.15;5.55;;;;;;;;;;5042344;28;20025;-51
2021/09/21 08:10:07;;;;;;;13.27;6.78;;;;;;;;;;5043204;28;20029;-52
2021/09/21 08:12:33;;;;;;;12.93;6.55;;;;;;;;;;5044371;28;20078;-52
2021/09/21 08:14:59;;;;;;;10.98;5.80;;;;;;;;;;5041832;28;20367;-52
2021/09/21 08:17:27;;;;;;;11.98;5.68;;;;;;;;;;5041899;28;20018;-51
2021/09/21 08:19:54;;;;;;;11.73;6.15;;;;;;;;;;5041212;28;20036;-52
2021/09/21 08:22:20;;;;;;;10.98;6.50;;;;;;;;;;5040727;28;20040;-52
2021/09/21 08:24:47;;;;;;;14.55;7.03;;;;;;;;;;5040758;28;20136;-51
2021/09/21 08:27:13;;;;;;;10.48;6.07;;;;;;;;;;5042100;28;20041;-51
2021/09/21 08:29:39;;;;;;;12.70;5.85;;;;;;;;;;5041196;28;20017;-51
2021/09/21 08:32:06;;;;;;;19.17;6.50;;;;;;;;;;5042099;28;20120;-52
2021/09/21 08:34:32;;;;;;;13.80;6.32;;;;;;;;;;5042798;28;20097;-52
2021/09/21 08:36:58;;;;;;;11.57;6.75;;;;;;;;;;5045145;28;20442;-52
2021/09/21 08:39:24;;;;;;;14.25;7.18;;;;;;;;;;5047281;28;20116;-51
2021/09/21 08:41:51;;;;;;;15.02;7.28;;;;;;;;;;5045705;28;20017;-51
2021/09/21 08:44:18;;;;;;;16.35;7.80;;;;;;;;;;5045863;28;20028;-51
2021/09/21 08:46:44;;;;;;;10.90;6.15;;;;;;;;;;5046208;28;20021;-51
2021/09/21 08:49:10;;;;;;;9.68;5.63;;;;;;;;;;5046751;28;20021;-51
2021/09/21 08:51:36;;;;;;;15.00;7.28;;;;;;;;;;5046431;28;20032;-51
2021/09/21 08:54:02;;;;;;;17.30;7.25;;;;;;;;;;5045166;28;20451;-51
2021/09/21 08:56:28;;;;;;;11.82;6.43;;;;;;;;;;5047500;28;20347;-52
2021/09/21 08:59:04;;;;;;;14.50;6.40;;;;;;;;;;5045725;28;20043;-52
2021/09/21 09:01:39;;;;;;;14.55;6.60;;;;;;;;;;5043925;28;20017;-52
2021/09/21 09:04:05;;;;;;;12.20;6.53;;;;;;;;;;5044222;28;20427;-52
2021/09/21 09:06:31;;;;;;;15.80;6.32;;;;;;;;;;5047771;28;20056;-51
2021/09/21 09:09:02;;;;;;;13.07;6.55;;;;;;;;;;5046650;28;20108;-51
2021/09/21 09:11:28;;;;;;;10.93;6.65;;;;;;;;;;5044605;28;20030;-52
2021/09/21 09:14:00;;;;;;;11.20;6.65;;;;;;;;;;5043355;28;20033;-51
2021/09/21 09:16:31;;;;;;;13.68;6.63;;;;;;;;;;5044766;28;20471;-51
2021/09/21 09:19:03;;;;;;;10.60;6.53;;;;;;;;;;5044684;28;20351;-51
2021/09/21 09:21:30;;;;;;;8.32;5.60;;;;;;;;;;5044371;28;20029;-52
2021/09/21 09:23:58;;;;;;;13.68;6.20;;;;;;;;;;5043784;28;20440;-52
2021/09/21 09:26:24;;;;;;;12.48;6.45;;;;;;;;;;5043002;28;20116;-52
2021/09/21 09:28:51;;;;;;;10.55;5.85;;;;;;;;;;5043670;28;20473;-51
2021/09/21 09:31:28;;;;;;;10.63;6.13;;;;;;;;;;5045378;28;20025;-52
2021/09/21 09:34:26;;;;;;;9.63;5.93;;;;;;;;;;5043919;28;20359;-51
2021/09/21 09:36:53;;;;;;;12.95;6.03;;;;;;;;;;5020031;28;20034;-51
2021/09/21 09:39:21;;;;;;;11.48;6.43;;;;;;;;;;5023740;28;20025;-51
2021/09/21 09:41:48;;;;;;;10.30;5.63;;;;;;;;;;5024909;28;20034;-51
2021/09/21 09:44:15;;;;;;;9.60;5.95;;;;;;;;;;5022215;28;20033;-51
2021/09/21 09:46:43;;;;;;;11.15;6.05;;;;;;;;;;5021504;28;20096;-52
2021/09/21 09:49:10;;;;;;;12.10;6.22;;;;;;;;;;5023998;28;20109;-50
2021/09/21 09:51:44;;;;;;;8.93;5.43;;;;;;;;;;5023240;28;20030;-50
2021/09/21 09:54:10;;;;;;;13.43;7.13;;;;;;;;;;5022932;28;20097;-50
2021/09/21 09:56:36;;;;;;;12.38;6.10;;;;;;;;;;5025533;28;20025;-51
2021/09/21 09:59:02;;;;;;;12.82;4.80;;;;;;;;;;5022474;28;20049;-51
2021/09/21 10:01:29;;;;;;;10.40;5.53;;;;;;;;;;5023087;28;20750;-51
2021/09/21 10:03:55;;;;;;;12.02;6.72;;;;;;;;;;5018248;28;20036;-51
2021/09/21 10:06:21;;;;;;;11.43;6.75;;;;;;;;;;5022351;28;20061;-52
2021/09/21 10:08:47;;;;;;;10.13;5.75;;;;;;;;;;5021919;28;20068;-51
2021/09/21 10:11:13;;;;;;;12.85;6.80;;;;;;;;;;5021878;28;20125;-51
2021/09/21 10:13:39;;;;;;;10.77;5.88;;;;;;;;;;5036031;28;20029;-52
2021/09/21 10:16:05;;;;;;;10.20;5.90;;;;;;;;;;5044751;28;20056;-51
2021/09/21 10:18:32;;;;;;;9.57;5.95;;;;;;;;;;5045034;28;20020;-51
2021/09/21 10:20:59;;;;;;;13.00;6.30;;;;;;;;;;5044905;28;20025;-51
2021/09/21 10:23:33;;;;;;;12.05;6.57;;;;;;;;;;5044491;28;20114;-51
2021/09/21 10:26:10;;;;;;;8.68;5.13;;;;;;;;;;5044247;28;20017;-51
2021/09/21 10:28:39;;;;;;;16.13;6.65;;;;;;;;;;5045042;28;20021;-51
2021/09/21 10:31:11;;;;;;;12.48;6.78;;;;;;;;;;5044580;28;20296;-51
2021/09/21 10:33:37;;;;;;;11.07;5.97;;;;;;;;;;5044526;28;20389;-51
2021/09/21 10:36:03;;;;;;;8.13;4.68;;;;;;;;;;5043017;28;20494;-51
2021/09/21 10:38:29;;;;;;;9.60;6.32;;;;;;;;;;5043621;28;20029;-51
2021/09/21 10:41:02;;;;;;;10.35;6.30;;;;;;;;;;5040306;28;20446;-51
2021/09/21 10:43:35;;;;;;;10.75;6.28;;;;;;;;;;5045481;28;20075;-51
2021/09/21 10:46:11;;;;;;;15.00;6.22;;;;;;;;;;5044583;28;20025;-52
2021/09/21 10:48:38;;;;;;;12.23;5.57;;;;;;;;;;5045152;28;20023;-51
2021/09/21 10:51:05;;;;;;;9.55;5.78;;;;;;;;;;5044796;28;20028;-51
2021/09/21 10:53:32;;;;;;;11.57;5.85;;;;;;;;;;5044953;28;20017;-51
2021/09/21 10:56:01;;;;;;;10.02;5.47;;;;;;;;;;5042265;28;20025;-51
2021/09/21 10:58:27;;;;;;;8.02;5.03;;;;;;;;;;5042272;28;20114;-51
2021/09/21 11:00:53;;;;;;;12.80;5.53;;;;;;;;;;5042349;28;20036;-51
2021/09/21 11:03:19;;;;;;;10.25;5.70;;;;;;;;;;5042179;28;20029;-51
2021/09/21 11:05:46;;;;;;;10.77;5.80;;;;;;;;;;5041656;28;20478;-52
2021/09/21 11:08:13;;;;;;;12.38;6.47;;;;;;;;;;5042532;28;20036;-51
2021/09/21 11:10:44;;;;;;;11.35;7.15;;;;;;;;;;5042045;28;20093;-52
2021/09/21 11:13:12;;;;;;;9.15;4.90;;;;;;;;;;5043729;28;20033;-51
2021/09/21 11:15:39;;;;;;;9.52;4.80;;;;;;;;;;5040404;28;20020;-52
2021/09/21 11:18:06;;;;;;;10.27;6.07;;;;;;;;;;5043265;28;20120;-52
2021/09/21 11:20:32;;;;;;;10.30;5.50;;;;;;;;;;5043316;28;20055;-52
2021/09/21 11:23:02;;;;;;;10.13;5.60;;;;;;;;;;5043340;28;20028;-52
2021/09/21 11:25:29;;;;;;;8.13;4.07;;;;;;;;;;5042596;28;20026;-52
2021/09/21 11:27:56;;;;;;;8.65;4.50;;;;;;;;;;5043450;28;20446;-51
2021/09/21 11:30:22;;;;;;;15.82;7.28;;;;;;;;;;5043953;28;20419;-52
2021/09/21 11:32:48;;;;;;;11.45;6.28;;;;;;;;;;5042717;28;20466;-52
2021/09/21 11:35:18;;;;;;;9.80;4.68;;;;;;;;;;5044179;28;20025;-52
2021/09/21 11:37:46;;;;;;;11.98;6.68;;;;;;;;;;5043981;28;20428;-51
2021/09/21 11:40:29;;;;;;;12.48;6.88;;;;;;;;;;5043944;28;20084;-51
2021/09/21 11:42:55;;;;;;;8.52;4.47;;;;;;;;;;5043988;28;20035;-52
2021/09/21 11:45:22;;;;;;;9.85;5.05;;;;;;;;;;5044158;28;20432;-52
2021/09/21 11:47:49;;;;;;;8.43;4.60;;;;;;;;;;5042326;28;20345;-52
2021/09/21 11:50:22;;;;;;;10.80;4.97;;;;;;;;;;5041871;28;20112;-52
2021/09/21 11:52:59;;;;;;;10.27;5.55;;;;;;;;;;5041489;28;20075;-51
2021/09/21 11:55:29;;;;;;;8.43;4.65;;;;;;;;;;5041726;28;20037;-52
2021/09/21 11:57:55;;;;;;;13.15;6.35;;;;;;;;;;5042402;28;20032;-52
2021/09/21 12:00:26;;;;;;;9.45;5.35;;;;;;;;;;5042047;28;20040;-51
2021/09/21 12:02:59;;;;;;;13.95;6.57;;;;;;;;;;5041657;28;20021;-51
2021/09/21 12:05:26;;;;;;;11.30;6.25;;;;;;;;;;5042679;28;20025;-52
2021/09/21 12:07:52;;;;;;;12.45;6.65;;;;;;;;;;5042044;28;20013;-52
2021/09/21 12:10:19;;;;;;;11.60;5.95;;;;;;;;;;5046778;28;20045;-52
2021/09/21 12:12:45;;;;;;;14.38;7.25;;;;;;;;;;5046763;28;20131;-51
2021/09/21 12:15:12;;;;;;;13.23;6.30;;;;;;;;;;5046140;28;20412;-52
2021/09/21 12:17:43;;;;;;;11.35;6.03;;;;;;;;;;5046753;28;20061;-51
2021/09/21 12:20:09;;;;;;;11.52;6.63;;;;;;;;;;5046409;28;20111;-52
2021/09/21 12:22:35;;;;;;;13.55;5.75;;;;;;;;;;5047037;28;20025;-52
2021/09/21 12:25:12;;;;;;;11.77;6.47;;;;;;;;;;5045544;28;20359;-51
2021/09/21 12:27:38;;;;;;;11.88;5.65;;;;;;;;;;5046380;28;20094;-51
2021/09/21 12:30:05;;;;;;;10.73;6.22;;;;;;;;;;5046522;28;20025;-51
2021/09/21 12:32:31;;;;;;;7.50;5.10;;;;;;;;;;5047932;28;20286;-51
2021/09/21 12:35:02;;;;;;;11.88;6.28;;;;;;;;;;5046914;28;20017;-52
2021/09/21 12:37:35;;;;;;;12.25;6.60;;;;;;;;;;5048585;28;20029;-51
2021/09/21 12:40:01;;;;;;;14.98;7.07;;;;;;;;;;5046084;28;20025;-51
2021/09/21 12:42:29;;;;;;;12.50;6.80;;;;;;;;;;5044024;28;20447;-52
2021/09/21 12:45:00;;;;;;;13.20;6.88;;;;;;;;;;5043860;28;20029;-51
2021/09/21 12:47:26;;;;;;;12.30;5.93;;;;;;;;;;5046125;28;20104;-51
2021/09/21 12:49:52;;;;;;;12.43;6.30;;;;;;;;;;5045252;28;20029;-52
2021/09/21 12:52:27;;;;;;;9.20;5.47;;;;;;;;;;5044537;28;20029;-51
2021/09/21 12:54:53;;;;;;;10.73;5.97;;;;;;;;;;5044140;28;20071;-52
2021/09/21 12:57:22;;;;;;;9.23;5.28;;;;;;;;;;5045374;28;20029;-51
2021/09/21 12:59:52;;;;;;;8.90;5.20;;;;;;;;;;5045218;28;20355;-51
2021/09/21 13:02:18;;;;;;;8.77;5.82;;;;;;;;;;5045590;28;20052;-52
2021/09/21 13:04:44;;;;;;;10.23;5.03;;;;;;;;;;5045101;28;20028;-51
2021/09/21 13:07:10;;;;;;;9.88;5.90;;;;;;;;;;5045266;28;20493;-52
2021/09/21 13:09:36;;;;;;;10.07;5.63;;;;;;;;;;5045478;28;20028;-51
2021/09/21 13:12:03;;;;;;;14.05;5.55;;;;;;;;;;5045554;28;20025;-52
2021/09/21 13:14:28;;;;;;;11.75;5.00;;;;;;;;;;5045770;28;20032;-52
2021/09/21 13:16:54;;;;;;;10.27;5.50;;;;;;;;;;5045601;28;20145;-52
2021/09/21 13:19:21;;;;;;;16.52;5.10;;;;;;;;;;5046729;28;20056;-52
2021/09/21 13:21:47;;;;;;;9.35;5.50;;;;;;;;;;5045389;28;20101;-52
2021/09/21 13:24:13;;;;;;;10.55;5.35;;;;;;;;;;5045876;28;20449;-51
2021/09/21 13:26:39;;;;;;;11.60;6.00;;;;;;;;;;5045960;28;20120;-51
2021/09/21 13:29:06;;;;;;;13.90;7.28;;;;;;;;;;5045491;28;20033;-51
2021/09/21 13:31:32;;;;;;;11.40;6.22;;;;;;;;;;5045391;28;20021;-51
2021/09/21 13:33:58;;;;;;;14.93;6.35;;;;;;;;;;5042579;28;20510;-52
2021/09/21 13:36:24;;;;;;;10.65;6.10;;;;;;;;;;5043524;28;20129;-51
2021/09/21 13:38:51;;;;;;;12.02;6.57;;;;;;;;;;5043925;28;20115;-51
2021/09/21 13:41:17;;;;;;;9.57;5.90;;;;;;;;;;5045306;28;20157;-52
2021/09/21 13:43:43;;;;;;;9.23;5.40;;;;;;;;;;5042836;28;20112;-51
2021/09/21 13:46:09;;;;;;;9.30;4.78;;;;;;;;;;5044189;28;20029;-51
2021/09/21 13:48:35;;;;;;;8.07;5.20;;;;;;;;;;5044307;28;20447;-51
2021/09/21 13:51:01;;;;;;;13.50;5.03;;;;;;;;;;5045207;28;20028;-51
2021/09/21 13:53:27;;;;;;;7.68;4.10;;;;;;;;;;5044446;28;20368;-52
2021/09/21 13:55:53;;;;;;;8.55;4.65;;;;;;;;;;5044018;28;20354;-51
2021/09/21 13:58:19;;;;;;;8.25;5.18;;;;;;;;;;5044964;28;20517;-52
2021/09/21 14:00:46;;;;;;;10.73;4.80;;;;;;;;;;5044360;28;20037;-52
2021/09/21 14:03:13;;;;;;;12.27;4.55;;;;;;;;;;5045329;28;20415;-51
2021/09/21 14:05:39;;;;;;;8.25;4.85;;;;;;;;;;5040681;28;20328;-51
2021/09/21 14:08:06;;;;;;;7.47;4.47;;;;;;;;;;5042348;28;20018;-51
2021/09/21 14:10:32;;;;;;;7.40;4.65;;;;;;;;;;5046119;28;20070;-51
2021/09/21 14:12:58;;;;;;;8.13;4.80;;;;;;;;;;5044929;28;20030;-51
2021/09/21 14:15:24;;;;;;;7.43;4.70;;;;;;;;;;5044787;28;20101;-51
2021/09/21 14:17:51;;;;;;;7.20;4.15;;;;;;;;;;5045439;28;20025;-52
2021/09/21 14:20:19;;;;;;;7.28;3.60;;;;;;;;;;5044010;28;20087;-52
2021/09/21 14:22:46;;;;;;;7.28;3.95;;;;;;;;;;5044596;28;20560;-52
2021/09/21 14:25:13;;;;;;;8.65;4.40;;;;;;;;;;5042699;28;20029;-52
2021/09/21 14:27:39;;;;;;;9.57;4.47;;;;;;;;;;5041959;28;20026;-52
2021/09/21 14:30:08;;;;;;;10.35;4.97;;;;;;;;;;5041826;28;20157;-51
2021/09/21 14:32:34;;;;;;;7.88;4.50;;;;;;;;;;5042110;28;20033;-52
2021/09/21 14:35:00;;;;;;;7.80;4.50;;;;;;;;;;5041679;28;20366;-52
2021/09/21 14:37:26;;;;;;;8.05;4.70;;;;;;;;;;5042158;28;20025;-51
2021/09/21 14:39:52;;;;;;;8.68;4.32;;;;;;;;;;5060586;28;20079;-51
2021/09/21 14:42:18;;;;;;;8.68;4.28;;;;;;;;;;5071285;28;20077;-51